Arnold AFB, Tennessee
Current Conditions -  °F | °C
As of 6:15 PM on Wednesday 28 Jan 2015 (Local Time) from KTHA Reporting Station
Clear Clear  
Wind Chill: 39°   Ceiling: Unl
Heat Index: 39°   Visibility: 10mi
Dew Point: 25°   Wind: 0mph
Humidity: 56%   Direction: NA
Pressure: 30.21"   Gusts: NA
Location:  35.36°N, 86.21°W
Report Text: KTHA 290015Z AUTO 00000KT 10SM CLR 04/M04 A3021 RMK
Loading
Personal Weather Stations






























Interactive Weather Map New forecast layout! Learn more

10-Day Weather Forecast

Advertisements
Track Severe Weather on mobile